HAZ2910 ZYTL-ZSHC
Flight info
| Callsign | HAZ2910 |
|---|---|
| Flight time | 1h 40m |
| Altitude | 32100 |
| Route | KARPI W5 TAO DCT URBAD W172 LATUX W108 MATNU W115 PINOT B221 SUPAR W505 DSH |
| Aircraft | A320/M-SDE3FGHIRWY/LB1 |
Departure
| Time | 2026-04-21 22:57 |
|---|---|
| Airport | Dalian Zhoushuizi International Airport (ZYTL) |
Arrival
| Time | 2026-04-22 00:37 |
|---|---|
| Airport | Hangzhou Xiaoshan International Airport (ZSHC) |
| Time | Latitude | Longitude | Altitude | Speed | Heading |
|---|---|---|---|---|---|
| 2026-04-21 22:39 | 38.96199 | 121.54642 | 116 ft | 0 kts | 185° |
| 2026-04-21 22:49 | 38.96210 | 121.54642 | 112 ft | 1 kts | 162° |
| 2026-04-21 22:50 | 38.96222 | 121.54635 | 114 ft | 2 kts | 136° |
| 2026-04-21 22:50 | 38.96230 | 121.54621 | 111 ft | 4 kts | 108° |
| 2026-04-21 22:50 | 38.96232 | 121.54613 | 111 ft | 0 kts | 93° |
| 2026-04-21 22:53 | 38.96240 | 121.54636 | 114 ft | 7 kts | 52° |
| 2026-04-21 22:53 | 38.96289 | 121.54653 | 113 ft | 7 kts | 6° |
| 2026-04-21 22:53 | 38.96316 | 121.54692 | 114 ft | 8 kts | 82° |
| 2026-04-21 22:53 | 38.96311 | 121.54784 | 116 ft | 13 kts | 95° |
| 2026-04-21 22:54 | 38.96298 | 121.54922 | 116 ft | 18 kts | 110° |
| 2026-04-21 22:54 | 38.96266 | 121.55086 | 113 ft | 19 kts | 95° |
| 2026-04-21 22:54 | 38.96253 | 121.55249 | 114 ft | 18 kts | 95° |
| 2026-04-21 22:54 | 38.96243 | 121.55391 | 116 ft | 11 kts | 85° |
| 2026-04-21 22:55 | 38.96292 | 121.55444 | 114 ft | 11 kts | 11° |
| 2026-04-21 22:55 | 38.96332 | 121.55450 | 114 ft | 3 kts | 5° |
| 2026-04-21 22:55 | 38.96354 | 121.55453 | 113 ft | 5 kts | 5° |
| 2026-04-21 22:55 | 38.96419 | 121.55455 | 114 ft | 11 kts | 342° |
| 2026-04-21 22:56 | 38.96439 | 121.55405 | 114 ft | 1 kts | 275° |
| 2026-04-21 22:56 | 38.96457 | 121.55168 | 114 ft | 64 kts | 276° |
| 2026-04-21 22:56 | 38.96522 | 121.54316 | 116 ft | 126 kts | 276° |
| 2026-04-21 22:56 | 38.96627 | 121.53030 | 337 ft | 154 kts | 276° |
| 2026-04-21 22:57 | 38.96687 | 121.52103 | 815 ft | 155 kts | 274° |
| 2026-04-21 22:57 | 38.96757 | 121.50740 | 1659 ft | 149 kts | 274° |
| 2026-04-21 22:57 | 38.96597 | 121.49469 | 2487 ft | 148 kts | 244° |
| 2026-04-21 22:57 | 38.95471 | 121.48380 | 3268 ft | 169 kts | 204° |
| 2026-04-21 22:58 | 38.94687 | 121.48092 | 3567 ft | 179 kts | 202° |
| 2026-04-21 22:58 | 38.93436 | 121.47621 | 3990 ft | 195 kts | 202° |
| 2026-04-21 22:58 | 38.91618 | 121.46924 | 4539 ft | 217 kts | 202° |
| 2026-04-21 22:58 | 38.90122 | 121.46347 | 5069 ft | 229 kts | 201° |
| 2026-04-21 22:59 | 38.88559 | 121.45740 | 5646 ft | 242 kts | 201° |
| 2026-04-21 22:59 | 38.87443 | 121.45304 | 5976 ft | 254 kts | 200° |
| 2026-04-21 22:59 | 38.85101 | 121.44392 | 6670 ft | 277 kts | 199° |
| 2026-04-21 22:59 | 38.83835 | 121.43900 | 7103 ft | 284 kts | 199° |
| 2026-04-21 23:00 | 38.81931 | 121.43161 | 7898 ft | 288 kts | 198° |
| 2026-04-21 23:00 | 38.80007 | 121.42414 | 8728 ft | 291 kts | 198° |
| 2026-04-21 23:00 | 38.78082 | 121.41575 | 9539 ft | 294 kts | 207° |
| 2026-04-21 23:00 | 38.76331 | 121.40198 | 10302 ft | 297 kts | 214° |
| 2026-04-21 23:01 | 38.74575 | 121.38697 | 10777 ft | 312 kts | 215° |
| 2026-04-21 23:01 | 38.72722 | 121.37112 | 11174 ft | 329 kts | 215° |
| 2026-04-21 23:01 | 38.70769 | 121.35448 | 11525 ft | 346 kts | 215° |
| 2026-04-21 23:01 | 38.68720 | 121.33705 | 11834 ft | 362 kts | 214° |
| 2026-04-21 23:02 | 38.66568 | 121.31882 | 12124 ft | 379 kts | 214° |
| 2026-04-21 23:02 | 38.64356 | 121.30010 | 12346 ft | 395 kts | 214° |
| 2026-04-21 23:02 | 38.62029 | 121.28042 | 12673 ft | 406 kts | 214° |
| 2026-04-21 23:02 | 38.59664 | 121.26046 | 13279 ft | 409 kts | 214° |
| 2026-04-21 23:03 | 38.57286 | 121.24040 | 13932 ft | 410 kts | 214° |
| 2026-04-21 23:03 | 38.54947 | 121.21941 | 14473 ft | 412 kts | 222° |
| 2026-04-21 23:03 | 38.53925 | 121.20689 | 14716 ft | 412 kts | 229° |
| 2026-04-21 23:04 | 38.53834 | 121.20560 | 14744 ft | 412 kts | 230° |
| 2026-04-21 23:04 | 38.52081 | 121.17658 | 15242 ft | 414 kts | 235° |
| 2026-04-21 23:04 | 38.50358 | 121.14696 | 15726 ft | 417 kts | 235° |
| 2026-04-21 23:04 | 38.48615 | 121.11712 | 16209 ft | 420 kts | 235° |
| 2026-04-21 23:05 | 38.46858 | 121.08719 | 16677 ft | 422 kts | 236° |
| 2026-04-21 23:05 | 38.45088 | 121.05717 | 17130 ft | 425 kts | 236° |
| 2026-04-21 23:05 | 38.43305 | 121.02693 | 17575 ft | 428 kts | 236° |
| 2026-04-21 23:05 | 38.41517 | 120.99654 | 18008 ft | 430 kts | 236° |
| 2026-04-21 23:06 | 38.39715 | 120.96594 | 18421 ft | 432 kts | 236° |
| 2026-04-21 23:06 | 38.37917 | 120.93548 | 18929 ft | 427 kts | 239° |
| 2026-04-21 23:06 | 38.36139 | 120.90541 | 19455 ft | 424 kts | 239° |
| 2026-04-21 23:06 | 38.34364 | 120.87541 | 19842 ft | 424 kts | 239° |
| 2026-04-21 23:07 | 38.32590 | 120.84539 | 20182 ft | 425 kts | 239° |
| 2026-04-21 23:07 | 38.30810 | 120.81525 | 20499 ft | 426 kts | 239° |
| 2026-04-21 23:07 | 38.29027 | 120.78510 | 20821 ft | 427 kts | 239° |
| 2026-04-21 23:07 | 38.27230 | 120.75492 | 21130 ft | 429 kts | 238° |
| 2026-04-21 23:08 | 38.25159 | 120.72698 | 21431 ft | 440 kts | 229° |
| 2026-04-21 23:08 | 38.22669 | 120.70355 | 21721 ft | 451 kts | 219° |
| 2026-04-21 23:08 | 38.19857 | 120.68498 | 21983 ft | 459 kts | 213° |
| 2026-04-21 23:08 | 38.16973 | 120.66730 | 22246 ft | 460 kts | 214° |
| 2026-04-21 23:09 | 38.14092 | 120.64950 | 22503 ft | 461 kts | 214° |
| 2026-04-21 23:09 | 38.11207 | 120.63162 | 22749 ft | 462 kts | 214° |
| 2026-04-21 23:09 | 38.08321 | 120.61368 | 22986 ft | 463 kts | 214° |
| 2026-04-21 23:09 | 38.05425 | 120.59569 | 23217 ft | 464 kts | 213° |
| 2026-04-21 23:10 | 38.02389 | 120.58049 | 23435 ft | 475 kts | 205° |
| 2026-04-21 23:10 | 37.99128 | 120.57114 | 23650 ft | 486 kts | 196° |
| 2026-04-21 23:10 | 37.95734 | 120.56763 | 23889 ft | 491 kts | 191° |
| 2026-04-21 23:10 | 37.92332 | 120.56517 | 24131 ft | 490 kts | 191° |
| 2026-04-21 23:11 | 37.88935 | 120.56268 | 24380 ft | 488 kts | 192° |
| 2026-04-21 23:11 | 37.85547 | 120.56015 | 24632 ft | 487 kts | 192° |
| 2026-04-21 23:11 | 37.82167 | 120.55758 | 24894 ft | 486 kts | 192° |
| 2026-04-21 23:11 | 37.78803 | 120.55500 | 25155 ft | 484 kts | 192° |
| 2026-04-21 23:12 | 37.75440 | 120.55245 | 25417 ft | 483 kts | 192° |
| 2026-04-21 23:12 | 37.72091 | 120.54995 | 25685 ft | 482 kts | 192° |
| 2026-04-21 23:12 | 37.68747 | 120.54747 | 25958 ft | 481 kts | 192° |
| 2026-04-21 23:12 | 37.65412 | 120.54497 | 26235 ft | 479 kts | 193° |
| 2026-04-21 23:13 | 37.62104 | 120.54160 | 26514 ft | 475 kts | 195° |
| 2026-04-21 23:13 | 37.58824 | 120.53705 | 26801 ft | 472 kts | 196° |
| 2026-04-21 23:13 | 37.55578 | 120.53175 | 27096 ft | 470 kts | 197° |
| 2026-04-21 23:13 | 37.52340 | 120.52618 | 27401 ft | 469 kts | 197° |
| 2026-04-21 23:14 | 37.49113 | 120.52070 | 27714 ft | 467 kts | 197° |
| 2026-04-21 23:14 | 37.45889 | 120.51547 | 28032 ft | 467 kts | 197° |
| 2026-04-21 23:14 | 37.42668 | 120.51049 | 28342 ft | 466 kts | 197° |
| 2026-04-21 23:14 | 37.39453 | 120.50568 | 28641 ft | 465 kts | 197° |
| 2026-04-21 23:15 | 37.36240 | 120.50098 | 28942 ft | 464 kts | 197° |
| 2026-04-21 23:15 | 37.33036 | 120.49638 | 29245 ft | 463 kts | 197° |
| 2026-04-21 23:15 | 37.29835 | 120.49181 | 29550 ft | 462 kts | 197° |
| 2026-04-21 23:15 | 37.26646 | 120.48719 | 29848 ft | 461 kts | 197° |
| 2026-04-21 23:16 | 37.23464 | 120.48247 | 30132 ft | 460 kts | 198° |
| 2026-04-21 23:16 | 37.20287 | 120.47768 | 30375 ft | 459 kts | 198° |
| 2026-04-21 23:16 | 37.17115 | 120.47290 | 30610 ft | 459 kts | 198° |
| 2026-04-21 23:16 | 37.13945 | 120.46815 | 30837 ft | 459 kts | 198° |
| 2026-04-21 23:17 | 37.10770 | 120.46345 | 31063 ft | 459 kts | 198° |
| 2026-04-21 23:17 | 37.07600 | 120.45877 | 31291 ft | 459 kts | 198° |
| 2026-04-21 23:17 | 37.04430 | 120.45409 | 31521 ft | 459 kts | 198° |
| 2026-04-21 23:17 | 37.01254 | 120.44941 | 31752 ft | 459 kts | 198° |
| 2026-04-21 23:18 | 36.98084 | 120.44475 | 31975 ft | 459 kts | 198° |
| 2026-04-21 23:18 | 36.94912 | 120.44003 | 32101 ft | 460 kts | 198° |
| 2026-04-21 23:18 | 36.88499 | 120.43040 | 32126 ft | 467 kts | 197° |
| 2026-04-21 23:19 | 36.82033 | 120.42094 | 32125 ft | 468 kts | 197° |
| 2026-04-21 23:19 | 36.75566 | 120.41164 | 32125 ft | 468 kts | 197° |
| 2026-04-21 23:20 | 36.69108 | 120.40232 | 32125 ft | 467 kts | 197° |
| 2026-04-21 23:20 | 36.62646 | 120.39281 | 32127 ft | 467 kts | 197° |
| 2026-04-21 23:21 | 36.56191 | 120.38329 | 32142 ft | 467 kts | 197° |
| 2026-04-21 23:21 | 36.49697 | 120.37552 | 32138 ft | 472 kts | 193° |
| 2026-04-21 23:22 | 36.43096 | 120.37322 | 32138 ft | 476 kts | 190° |
| 2026-04-21 23:22 | 36.36465 | 120.37258 | 32138 ft | 476 kts | 190° |
| 2026-04-21 23:23 | 36.29789 | 120.37719 | 32138 ft | 491 kts | 178° |
| 2026-04-21 23:23 | 36.26498 | 120.38795 | 32134 ft | 502 kts | 168° |
| 2026-04-21 23:23 | 36.23223 | 120.40576 | 32128 ft | 512 kts | 160° |
| 2026-04-21 23:24 | 36.16913 | 120.44671 | 32129 ft | 512 kts | 160° |
| 2026-04-21 23:24 | 36.10424 | 120.47678 | 32129 ft | 492 kts | 176° |
| 2026-04-21 23:25 | 36.03755 | 120.48568 | 32127 ft | 478 kts | 186° |
| 2026-04-21 23:25 | 35.97093 | 120.49253 | 32134 ft | 488 kts | 177° |
| 2026-04-21 23:26 | 35.90553 | 120.52010 | 32131 ft | 505 kts | 163° |
| 2026-04-21 23:26 | 35.84148 | 120.55557 | 32136 ft | 504 kts | 164° |
| 2026-04-21 23:27 | 35.77747 | 120.59063 | 32134 ft | 503 kts | 164° |
| 2026-04-21 23:27 | 35.71369 | 120.62610 | 32133 ft | 505 kts | 162° |
| 2026-04-21 23:28 | 35.65132 | 120.66691 | 32126 ft | 509 kts | 158° |
| 2026-04-21 23:28 | 35.58998 | 120.71067 | 32129 ft | 510 kts | 157° |
| 2026-04-21 23:29 | 35.52836 | 120.75366 | 32126 ft | 508 kts | 158° |
| 2026-04-21 23:29 | 35.46567 | 120.79264 | 32130 ft | 499 kts | 167° |
| 2026-04-21 23:30 | 35.40108 | 120.82395 | 32125 ft | 499 kts | 166° |
| 2026-04-21 23:30 | 35.33656 | 120.85581 | 32118 ft | 500 kts | 166° |
| 2026-04-21 23:31 | 35.27216 | 120.88784 | 32115 ft | 500 kts | 166° |
| 2026-04-21 23:31 | 35.20763 | 120.91978 | 32112 ft | 500 kts | 166° |
| 2026-04-21 23:32 | 35.14313 | 120.95156 | 32108 ft | 500 kts | 166° |
| 2026-04-21 23:32 | 35.07921 | 120.98329 | 32099 ft | 489 kts | 165° |
| 2026-04-21 23:33 | 35.01631 | 121.01470 | 32101 ft | 488 kts | 165° |
| 2026-04-21 23:33 | 34.95336 | 121.04590 | 32101 ft | 488 kts | 166° |
| 2026-04-21 23:34 | 34.89041 | 121.07701 | 32094 ft | 488 kts | 166° |
| 2026-04-21 23:34 | 34.82746 | 121.10805 | 32091 ft | 488 kts | 166° |
| 2026-04-21 23:35 | 34.76449 | 121.13907 | 32087 ft | 488 kts | 166° |
| 2026-04-21 23:35 | 34.70147 | 121.17009 | 32084 ft | 488 kts | 166° |
| 2026-04-21 23:36 | 34.63848 | 121.20102 | 32079 ft | 488 kts | 166° |
| 2026-04-21 23:36 | 34.57554 | 121.23196 | 32084 ft | 488 kts | 166° |
| 2026-04-21 23:37 | 34.51263 | 121.26287 | 32077 ft | 488 kts | 166° |
| 2026-04-21 23:37 | 34.44975 | 121.29356 | 32078 ft | 487 kts | 166° |
| 2026-04-21 23:38 | 34.38692 | 121.32412 | 32076 ft | 487 kts | 166° |
| 2026-04-21 23:38 | 34.32409 | 121.35473 | 32073 ft | 486 kts | 166° |
| 2026-04-21 23:39 | 34.26132 | 121.38529 | 32074 ft | 486 kts | 166° |
| 2026-04-21 23:39 | 34.19859 | 121.41586 | 32066 ft | 486 kts | 166° |
| 2026-04-21 23:40 | 34.14653 | 121.44117 | 32058 ft | 485 kts | 166° |
| 2026-04-21 23:40 | 34.07324 | 121.47663 | 32053 ft | 485 kts | 166° |
| 2026-04-21 23:41 | 34.02121 | 121.50179 | 32053 ft | 485 kts | 166° |
| 2026-04-21 23:41 | 33.95859 | 121.53210 | 32048 ft | 485 kts | 166° |
| 2026-04-21 23:42 | 33.89593 | 121.56231 | 32046 ft | 485 kts | 166° |
| 2026-04-21 23:42 | 33.83329 | 121.59238 | 32042 ft | 485 kts | 166° |
| 2026-04-21 23:43 | 33.77063 | 121.62250 | 32033 ft | 485 kts | 167° |
| 2026-04-21 23:43 | 33.70797 | 121.65253 | 32026 ft | 485 kts | 166° |
| 2026-04-21 23:44 | 33.64535 | 121.68302 | 32022 ft | 486 kts | 166° |
| 2026-04-21 23:44 | 33.58277 | 121.71385 | 32018 ft | 486 kts | 166° |
| 2026-04-21 23:45 | 33.48874 | 121.75999 | 32014 ft | 487 kts | 166° |
| 2026-04-21 23:46 | 33.42604 | 121.79058 | 32008 ft | 487 kts | 166° |
| 2026-04-21 23:46 | 33.36331 | 121.82109 | 32004 ft | 487 kts | 166° |
| 2026-04-21 23:47 | 33.30053 | 121.85170 | 32004 ft | 487 kts | 166° |
| 2026-04-21 23:47 | 33.23769 | 121.88219 | 32005 ft | 487 kts | 166° |
| 2026-04-21 23:48 | 33.17491 | 121.91259 | 32001 ft | 487 kts | 166° |
| 2026-04-21 23:48 | 33.11214 | 121.94290 | 31997 ft | 487 kts | 166° |
| 2026-04-21 23:49 | 33.04935 | 121.97325 | 31992 ft | 487 kts | 166° |
| 2026-04-21 23:49 | 32.98653 | 122.00355 | 31992 ft | 487 kts | 166° |
| 2026-04-21 23:50 | 32.92375 | 122.03392 | 31992 ft | 487 kts | 166° |
| 2026-04-21 23:50 | 32.86098 | 122.06417 | 31999 ft | 486 kts | 166° |
| 2026-04-21 23:51 | 32.79815 | 122.09425 | 31981 ft | 487 kts | 166° |
| 2026-04-21 23:51 | 32.73530 | 122.12443 | 31980 ft | 487 kts | 166° |
| 2026-04-21 23:52 | 32.67244 | 122.15461 | 31982 ft | 487 kts | 166° |
| 2026-04-21 23:52 | 32.60950 | 122.18458 | 31976 ft | 487 kts | 166° |
| 2026-04-21 23:53 | 32.54656 | 122.21458 | 31974 ft | 487 kts | 166° |
| 2026-04-21 23:53 | 32.48371 | 122.24459 | 31974 ft | 487 kts | 166° |
| 2026-04-21 23:54 | 32.42129 | 122.27434 | 31974 ft | 487 kts | 166° |
| 2026-04-21 23:54 | 32.35843 | 122.30419 | 31970 ft | 486 kts | 166° |
| 2026-04-21 23:55 | 32.29561 | 122.33403 | 31973 ft | 486 kts | 166° |
| 2026-04-21 23:55 | 32.23288 | 122.36385 | 31964 ft | 486 kts | 165° |
| 2026-04-21 23:56 | 32.17003 | 122.39363 | 31969 ft | 487 kts | 165° |
| 2026-04-21 23:56 | 32.10718 | 122.42330 | 31977 ft | 487 kts | 165° |
| 2026-04-21 23:57 | 32.04423 | 122.45293 | 31981 ft | 487 kts | 165° |
| 2026-04-21 23:57 | 31.98134 | 122.48262 | 31961 ft | 487 kts | 165° |
| 2026-04-21 23:58 | 31.91844 | 122.51223 | 31969 ft | 487 kts | 165° |
| 2026-04-21 23:58 | 31.85548 | 122.54185 | 31976 ft | 487 kts | 165° |
| 2026-04-21 23:59 | 31.79262 | 122.57137 | 31968 ft | 487 kts | 165° |
| 2026-04-21 23:59 | 31.72935 | 122.59812 | 31969 ft | 477 kts | 175° |
| 2026-04-21 23:59 | 31.69680 | 122.60349 | 31965 ft | 466 kts | 185° |
| 2026-04-22 00:00 | 31.66477 | 122.60213 | 31962 ft | 456 kts | 194° |
| 2026-04-22 00:00 | 31.60544 | 122.58114 | 31949 ft | 440 kts | 213° |
| 2026-04-22 00:01 | 31.55523 | 122.54169 | 31939 ft | 433 kts | 221° |
| 2026-04-22 00:01 | 31.50685 | 122.49949 | 31936 ft | 434 kts | 221° |
| 2026-04-22 00:02 | 31.45812 | 122.45793 | 31961 ft | 432 kts | 217° |
| 2026-04-22 00:02 | 31.43160 | 122.44165 | 31773 ft | 432 kts | 208° |
| 2026-04-22 00:02 | 31.40350 | 122.42891 | 31407 ft | 434 kts | 207° |
| 2026-04-22 00:02 | 31.37520 | 122.41635 | 31044 ft | 435 kts | 207° |
| 2026-04-22 00:03 | 31.34681 | 122.40378 | 30687 ft | 437 kts | 207° |
| 2026-04-22 00:03 | 31.31837 | 122.39120 | 30336 ft | 438 kts | 207° |
| 2026-04-22 00:03 | 31.28984 | 122.37856 | 29987 ft | 439 kts | 207° |
| 2026-04-22 00:03 | 31.26119 | 122.36586 | 29582 ft | 441 kts | 207° |
| 2026-04-22 00:04 | 31.23248 | 122.35312 | 29181 ft | 442 kts | 207° |
| 2026-04-22 00:04 | 31.20361 | 122.34031 | 28769 ft | 444 kts | 206° |
| 2026-04-22 00:04 | 31.17476 | 122.32750 | 28381 ft | 445 kts | 206° |
| 2026-04-22 00:04 | 31.14574 | 122.31461 | 27996 ft | 447 kts | 206° |
| 2026-04-22 00:05 | 31.11664 | 122.30167 | 27614 ft | 448 kts | 206° |
| 2026-04-22 00:05 | 31.08744 | 122.28871 | 27234 ft | 450 kts | 206° |
| 2026-04-22 00:05 | 31.05812 | 122.27571 | 26858 ft | 452 kts | 206° |
| 2026-04-22 00:05 | 31.02864 | 122.26267 | 26491 ft | 454 kts | 206° |
| 2026-04-22 00:06 | 30.99910 | 122.24972 | 26127 ft | 455 kts | 205° |
| 2026-04-22 00:06 | 30.96894 | 122.23780 | 25768 ft | 459 kts | 203° |
| 2026-04-22 00:06 | 30.93829 | 122.22714 | 25419 ft | 461 kts | 201° |
| 2026-04-22 00:06 | 30.90725 | 122.21727 | 25069 ft | 463 kts | 200° |
| 2026-04-22 00:07 | 30.87604 | 122.20768 | 24718 ft | 464 kts | 200° |
| 2026-04-22 00:07 | 30.84550 | 122.19603 | 24381 ft | 460 kts | 208° |
| 2026-04-22 00:07 | 30.81741 | 122.17885 | 24050 ft | 454 kts | 217° |
| 2026-04-22 00:07 | 30.79259 | 122.15670 | 23704 ft | 441 kts | 226° |
| 2026-04-22 00:08 | 30.77214 | 122.13144 | 23412 ft | 419 kts | 234° |
| 2026-04-22 00:08 | 30.75571 | 122.10431 | 23137 ft | 402 kts | 240° |
| 2026-04-22 00:08 | 30.74076 | 122.07742 | 22840 ft | 392 kts | 240° |
| 2026-04-22 00:08 | 30.72590 | 122.05095 | 22553 ft | 391 kts | 239° |
| 2026-04-22 00:09 | 30.71106 | 122.02455 | 22271 ft | 389 kts | 239° |
| 2026-04-22 00:09 | 30.69628 | 121.99825 | 21993 ft | 388 kts | 239° |
| 2026-04-22 00:09 | 30.68157 | 121.97209 | 21721 ft | 387 kts | 239° |
| 2026-04-22 00:09 | 30.66685 | 121.94595 | 21438 ft | 385 kts | 239° |
| 2026-04-22 00:10 | 30.65223 | 121.91998 | 21169 ft | 384 kts | 239° |
| 2026-04-22 00:10 | 30.63765 | 121.89409 | 20900 ft | 383 kts | 239° |
| 2026-04-22 00:10 | 30.62309 | 121.86825 | 20634 ft | 381 kts | 239° |
| 2026-04-22 00:10 | 30.60859 | 121.84254 | 20372 ft | 380 kts | 239° |
| 2026-04-22 00:11 | 30.59412 | 121.81690 | 20106 ft | 379 kts | 239° |
| 2026-04-22 00:11 | 30.57970 | 121.79132 | 19848 ft | 378 kts | 239° |
| 2026-04-22 00:11 | 30.56533 | 121.76582 | 19576 ft | 377 kts | 239° |
| 2026-04-22 00:11 | 30.55100 | 121.74048 | 19337 ft | 375 kts | 239° |
| 2026-04-22 00:12 | 30.53667 | 121.71520 | 19086 ft | 374 kts | 239° |
| 2026-04-22 00:12 | 30.52239 | 121.69004 | 18833 ft | 373 kts | 239° |
| 2026-04-22 00:12 | 30.50814 | 121.66495 | 18588 ft | 372 kts | 239° |
| 2026-04-22 00:12 | 30.49413 | 121.64024 | 18345 ft | 371 kts | 239° |
| 2026-04-22 00:13 | 30.48000 | 121.61528 | 18096 ft | 370 kts | 239° |
| 2026-04-22 00:13 | 30.46593 | 121.59042 | 17814 ft | 368 kts | 239° |
| 2026-04-22 00:13 | 30.45189 | 121.56568 | 17525 ft | 366 kts | 239° |
| 2026-04-22 00:13 | 30.43791 | 121.54108 | 17238 ft | 365 kts | 239° |
| 2026-04-22 00:14 | 30.42399 | 121.51664 | 16964 ft | 363 kts | 239° |
| 2026-04-22 00:14 | 30.41012 | 121.49231 | 16688 ft | 361 kts | 239° |
| 2026-04-22 00:14 | 30.39630 | 121.46807 | 16409 ft | 360 kts | 239° |
| 2026-04-22 00:14 | 30.38256 | 121.44395 | 16140 ft | 358 kts | 239° |
| 2026-04-22 00:15 | 30.36886 | 121.41993 | 15873 ft | 357 kts | 239° |
| 2026-04-22 00:15 | 30.35522 | 121.39599 | 15606 ft | 355 kts | 239° |
| 2026-04-22 00:15 | 30.34168 | 121.37214 | 15338 ft | 354 kts | 239° |
| 2026-04-22 00:15 | 30.32824 | 121.34835 | 15075 ft | 353 kts | 239° |
| 2026-04-22 00:16 | 30.31485 | 121.32458 | 14817 ft | 351 kts | 239° |
| 2026-04-22 00:16 | 30.30154 | 121.30097 | 14560 ft | 350 kts | 239° |
| 2026-04-22 00:16 | 30.28822 | 121.27739 | 14309 ft | 349 kts | 239° |
| 2026-04-22 00:16 | 30.27497 | 121.25393 | 14049 ft | 348 kts | 239° |
| 2026-04-22 00:17 | 30.26174 | 121.23056 | 13796 ft | 347 kts | 239° |
| 2026-04-22 00:17 | 30.24830 | 121.20746 | 13529 ft | 345 kts | 237° |
| 2026-04-22 00:17 | 30.23427 | 121.18499 | 13260 ft | 344 kts | 236° |
| 2026-04-22 00:17 | 30.21992 | 121.16290 | 12975 ft | 343 kts | 236° |
| 2026-04-22 00:18 | 30.20554 | 121.14105 | 12695 ft | 341 kts | 236° |
| 2026-04-22 00:18 | 30.19122 | 121.11925 | 12419 ft | 339 kts | 236° |
| 2026-04-22 00:18 | 30.17714 | 121.09764 | 12143 ft | 332 kts | 236° |
| 2026-04-22 00:18 | 30.16352 | 121.07666 | 11908 ft | 320 kts | 236° |
| 2026-04-22 00:19 | 30.15044 | 121.05648 | 11708 ft | 308 kts | 236° |
| 2026-04-22 00:19 | 30.13785 | 121.03701 | 11515 ft | 297 kts | 236° |
| 2026-04-22 00:19 | 30.12569 | 121.01819 | 11326 ft | 287 kts | 237° |
| 2026-04-22 00:19 | 30.11393 | 120.99998 | 11128 ft | 279 kts | 237° |
| 2026-04-22 00:20 | 30.10252 | 120.98226 | 10936 ft | 274 kts | 237° |
| 2026-04-22 00:20 | 30.09119 | 120.96463 | 10751 ft | 273 kts | 237° |
| 2026-04-22 00:20 | 30.07989 | 120.94700 | 10564 ft | 273 kts | 237° |
| 2026-04-22 00:20 | 30.06863 | 120.92937 | 10376 ft | 272 kts | 237° |
| 2026-04-22 00:21 | 30.05756 | 120.91170 | 10187 ft | 271 kts | 240° |
| 2026-04-22 00:21 | 30.04865 | 120.89271 | 10001 ft | 268 kts | 249° |
| 2026-04-22 00:21 | 30.04259 | 120.87243 | 9817 ft | 267 kts | 257° |
| 2026-04-22 00:21 | 30.03946 | 120.85136 | 9625 ft | 266 kts | 265° |
| 2026-04-22 00:22 | 30.03925 | 120.83002 | 9421 ft | 266 kts | 274° |
| 2026-04-22 00:22 | 30.04197 | 120.80900 | 9220 ft | 265 kts | 282° |
| 2026-04-22 00:22 | 30.04753 | 120.78871 | 9015 ft | 266 kts | 290° |
| 2026-04-22 00:22 | 30.05453 | 120.76900 | 8814 ft | 264 kts | 289° |
| 2026-04-22 00:23 | 30.06144 | 120.74939 | 8612 ft | 264 kts | 289° |
| 2026-04-22 00:23 | 30.06835 | 120.72978 | 8410 ft | 263 kts | 289° |
| 2026-04-22 00:23 | 30.07523 | 120.71022 | 8215 ft | 263 kts | 289° |
| 2026-04-22 00:23 | 30.07978 | 120.69730 | 8083 ft | 262 kts | 289° |
| 2026-04-22 00:24 | 30.08658 | 120.67795 | 7883 ft | 260 kts | 289° |
| 2026-04-22 00:24 | 30.09340 | 120.65858 | 7693 ft | 259 kts | 289° |
| 2026-04-22 00:24 | 30.10018 | 120.63928 | 7501 ft | 259 kts | 289° |
| 2026-04-22 00:24 | 30.10694 | 120.62001 | 7307 ft | 259 kts | 289° |
| 2026-04-22 00:25 | 30.11593 | 120.59433 | 7048 ft | 257 kts | 289° |
| 2026-04-22 00:25 | 30.12037 | 120.58166 | 6921 ft | 257 kts | 289° |
| 2026-04-22 00:25 | 30.12705 | 120.56258 | 6737 ft | 256 kts | 289° |
| 2026-04-22 00:25 | 30.13373 | 120.54349 | 6551 ft | 256 kts | 289° |
| 2026-04-22 00:26 | 30.14039 | 120.52446 | 6359 ft | 255 kts | 289° |
| 2026-04-22 00:26 | 30.14699 | 120.50562 | 6171 ft | 249 kts | 289° |
| 2026-04-22 00:26 | 30.15333 | 120.48755 | 5989 ft | 236 kts | 286° |
| 2026-04-22 00:26 | 30.15648 | 120.46979 | 5875 ft | 218 kts | 270° |
| 2026-04-22 00:27 | 30.15515 | 120.45301 | 5794 ft | 204 kts | 255° |
| 2026-04-22 00:27 | 30.14998 | 120.43764 | 5685 ft | 207 kts | 243° |
| 2026-04-22 00:27 | 30.14334 | 120.42285 | 5584 ft | 207 kts | 244° |
| 2026-04-22 00:27 | 30.13676 | 120.40805 | 5485 ft | 207 kts | 244° |
| 2026-04-22 00:28 | 30.13016 | 120.39323 | 5384 ft | 207 kts | 244° |
| 2026-04-22 00:28 | 30.12358 | 120.37849 | 5280 ft | 205 kts | 244° |
| 2026-04-22 00:28 | 30.11698 | 120.36381 | 5180 ft | 206 kts | 244° |
| 2026-04-22 00:28 | 30.11043 | 120.34910 | 5060 ft | 205 kts | 244° |
| 2026-04-22 00:29 | 30.10396 | 120.33450 | 4936 ft | 205 kts | 243° |
| 2026-04-22 00:29 | 30.09748 | 120.31987 | 4811 ft | 204 kts | 243° |
| 2026-04-22 00:29 | 30.09100 | 120.30529 | 4690 ft | 204 kts | 243° |
| 2026-04-22 00:29 | 30.08452 | 120.29073 | 4566 ft | 204 kts | 243° |
| 2026-04-22 00:30 | 30.07802 | 120.27617 | 4444 ft | 204 kts | 243° |
| 2026-04-22 00:30 | 30.07152 | 120.26160 | 4304 ft | 204 kts | 243° |
| 2026-04-22 00:30 | 30.06502 | 120.24706 | 4192 ft | 204 kts | 243° |
| 2026-04-22 00:30 | 30.05853 | 120.23253 | 4069 ft | 203 kts | 243° |
| 2026-04-22 00:31 | 30.05310 | 120.21777 | 3941 ft | 196 kts | 258° |
| 2026-04-22 00:31 | 30.05322 | 120.20250 | 3817 ft | 189 kts | 281° |
| 2026-04-22 00:31 | 30.05878 | 120.18906 | 3696 ft | 186 kts | 304° |
| 2026-04-22 00:31 | 30.06860 | 120.17953 | 3574 ft | 192 kts | 328° |
| 2026-04-22 00:32 | 30.08079 | 120.17252 | 3454 ft | 193 kts | 328° |
| 2026-04-22 00:32 | 30.09272 | 120.16580 | 3332 ft | 195 kts | 335° |
| 2026-04-22 00:32 | 30.10620 | 120.16580 | 3184 ft | 204 kts | 24° |
| 2026-04-22 00:32 | 30.11608 | 120.17725 | 3077 ft | 207 kts | 67° |
| 2026-04-22 00:33 | 30.12176 | 120.19251 | 2984 ft | 207 kts | 64° |
| 2026-04-22 00:33 | 30.12830 | 120.20725 | 2906 ft | 206 kts | 63° |
| 2026-04-22 00:33 | 30.13493 | 120.22197 | 2915 ft | 206 kts | 63° |
| 2026-04-22 00:33 | 30.14151 | 120.23666 | 2910 ft | 205 kts | 63° |
| 2026-04-22 00:34 | 30.14807 | 120.25136 | 2912 ft | 207 kts | 63° |
| 2026-04-22 00:34 | 30.15465 | 120.26611 | 2809 ft | 206 kts | 63° |
| 2026-04-22 00:34 | 30.16118 | 120.28076 | 2586 ft | 204 kts | 63° |
| 2026-04-22 00:34 | 30.16767 | 120.29531 | 2331 ft | 203 kts | 63° |
| 2026-04-22 00:35 | 30.17411 | 120.30977 | 2067 ft | 202 kts | 63° |
| 2026-04-22 00:35 | 30.18052 | 120.32418 | 1811 ft | 198 kts | 62° |
| 2026-04-22 00:35 | 30.18661 | 120.33787 | 1553 ft | 186 kts | 62° |
| 2026-04-22 00:35 | 30.19236 | 120.35079 | 1302 ft | 176 kts | 62° |
| 2026-04-22 00:36 | 30.19772 | 120.36284 | 1081 ft | 161 kts | 62° |
| 2026-04-22 00:36 | 30.20261 | 120.37384 | 881 ft | 148 kts | 62° |
| 2026-04-22 00:36 | 30.20716 | 120.38407 | 699 ft | 141 kts | 62° |
| 2026-04-22 00:36 | 30.21159 | 120.39403 | 519 ft | 138 kts | 63° |
| 2026-04-22 00:37 | 30.21596 | 120.40386 | 335 ft | 137 kts | 63° |
| 2026-04-22 00:37 | 30.22026 | 120.41366 | 144 ft | 136 kts | 62° |
| 2026-04-22 00:37 | 30.22453 | 120.42316 | 33 ft | 117 kts | 63° |
| 2026-04-22 00:37 | 30.22691 | 120.42855 | 32 ft | 46 kts | 62° |
| 2026-04-22 00:38 | 30.22802 | 120.43107 | 33 ft | 28 kts | 63° |
| 2026-04-22 00:38 | 30.22891 | 120.43307 | 34 ft | 29 kts | 63° |
| 2026-04-22 00:38 | 30.22981 | 120.43508 | 35 ft | 22 kts | 63° |
| 2026-04-22 00:38 | 30.23046 | 120.43615 | 34 ft | 17 kts | 49° |
| 2026-04-22 00:39 | 30.23142 | 120.43711 | 34 ft | 16 kts | 32° |
| 2026-04-22 00:39 | 30.23212 | 120.43763 | 33 ft | 12 kts | 33° |
| 2026-04-22 00:39 | 30.23296 | 120.43800 | 32 ft | 16 kts | 352° |
| 2026-04-22 00:39 | 30.23400 | 120.43744 | 32 ft | 19 kts | 333° |
| 2026-04-22 00:40 | 30.23509 | 120.43681 | 32 ft | 17 kts | 333° |
| 2026-04-22 00:40 | 30.23562 | 120.43619 | 32 ft | 7 kts | 261° |
| 2026-04-22 00:40 | 30.23545 | 120.43576 | 31 ft | 4 kts | 242° |
| 2026-04-22 00:40 | 30.23536 | 120.43557 | 32 ft | 0 kts | 242° |